Time;durP1;ratioP1;P1;durP2;ratioP2;P2;SDS_P1;SDS_P2;PMS_P1;PMS_P2;Temp;Humidity;BMP_temperature;BMP_pressure;BME280_temperature;BME280_humidity;BME280_pressure;Samples;Min_cycle;Max_cycle;Signal;HPM_P1;HPM_P2
2023/03/08 00:00:16;;;;;;;0.60;0.60;;;22.90;36.60;;;;;;5041713;28;90181;-67
2023/03/08 00:02:44;;;;;;;1.07;0.70;;;22.90;36.60;;;;;;5042033;27;88278;-67
2023/03/08 00:05:12;;;;;;;0.80;0.80;;;22.80;36.50;;;;;;5041945;27;87058;-67
2023/03/08 00:07:40;;;;;;;0.87;0.60;;;22.80;36.50;;;;;;5041331;28;89097;-67
2023/03/08 00:10:10;;;;;;;1.03;0.97;;;22.70;37.10;;;;;;5042104;27;88516;-67
2023/03/08 00:12:38;;;;;;;1.27;0.70;;;22.70;36.50;;;;;;5040994;27;87085;-67
2023/03/08 00:15:08;;;;;;;0.70;0.70;;;22.60;36.50;;;;;;5042032;28;86295;-67
2023/03/08 00:17:36;;;;;;;0.50;0.50;;;22.60;36.50;;;;;;5040144;28;89146;-67
2023/03/08 00:20:05;;;;;;;1.23;0.77;;;22.50;36.50;;;;;;5041201;27;88204;-67
2023/03/08 00:22:35;;;;;;;1.17;0.63;;;22.50;36.50;;;;;;5039283;27;87973;-67
2023/03/08 00:25:04;;;;;;;0.87;0.60;;;22.50;37.20;;;;;;5040779;28;86927;-67
2023/03/08 00:27:32;;;;;;;1.23;0.57;;;22.40;36.50;;;;;;5040375;27;89120;-67
2023/03/08 00:30:00;;;;;;;1.27;0.90;;;22.40;37.10;;;;;;5039467;28;88825;-67
2023/03/08 00:32:29;;;;;;;4.30;1.30;;;22.40;36.60;;;;;;5038584;27;87086;-67
2023/03/08 00:34:57;;;;;;;0.60;0.40;;;22.30;36.50;;;;;;5040235;27;88212;-67
2023/03/08 00:37:25;;;;;;;2.10;1.23;;;22.30;36.50;;;;;;5040846;27;89325;-67
2023/03/08 00:39:54;;;;;;;0.53;0.50;;;22.30;36.50;;;;;;5041259;27;88787;-67
2023/03/08 00:42:22;;;;;;;2.40;1.00;;;22.30;36.60;;;;;;5040709;27;87151;-67
2023/03/08 00:44:50;;;;;;;1.00;0.90;;;22.30;36.50;;;;;;5040599;27;88077;-67
2023/03/08 00:47:17;;;;;;;6.57;0.80;;;22.20;37.20;;;;;;5038823;27;90212;-66
2023/03/08 00:49:47;;;;;;;0.40;0.40;;;22.20;36.50;;;;;;5039765;27;88365;-67
2023/03/08 00:52:15;;;;;;;0.73;0.73;;;22.20;36.50;;;;;;5039599;27;87176;-67
2023/03/08 00:54:43;;;;;;;1.00;0.60;;;22.10;36.50;;;;;;5040705;28;88883;-67
2023/03/08 00:57:11;;;;;;;1.13;1.00;;;22.20;36.60;;;;;;5040595;27;89201;-67
2023/03/08 00:59:39;;;;;;;2.07;0.87;;;22.10;36.50;;;;;;5040614;27;88839;-67
2023/03/08 01:02:07;;;;;;;0.40;0.40;;;22.10;36.50;;;;;;5040077;27;87005;-67
2023/03/08 01:04:35;;;;;;;0.50;0.50;;;22.00;36.50;;;;;;5038314;27;86288;-67
2023/03/08 01:07:04;;;;;;;1.37;0.77;;;22.00;36.50;;;;;;5040524;27;87260;-67
2023/03/08 01:09:32;;;;;;;0.97;0.53;;;22.00;36.50;;;;;;5039117;28;88805;-67
2023/03/08 01:12:00;;;;;;;2.20;0.50;;;22.00;36.60;;;;;;5040508;28;87919;-67
2023/03/08 01:14:29;;;;;;;1.33;1.03;;;22.00;36.60;;;;;;5040317;28;86941;-67
2023/03/08 01:16:57;;;;;;;1.10;0.90;;;21.90;36.50;;;;;;5040082;28;88099;-67
2023/03/08 01:19:25;;;;;;;1.57;1.10;;;21.90;36.50;;;;;;5038424;28;88934;-67
2023/03/08 01:21:53;;;;;;;0.70;0.57;;;21.90;36.50;;;;;;5040519;27;87151;-67
2023/03/08 01:24:22;;;;;;;0.57;0.57;;;21.90;36.50;;;;;;5040345;28;87112;-67
2023/03/08 01:26:52;;;;;;;1.03;0.50;;;21.90;36.50;;;;;;5040232;28;89173;-67
2023/03/08 01:29:19;;;;;;;1.40;0.87;;;21.80;36.50;;;;;;5040505;27;88907;-67
2023/03/08 01:31:47;;;;;;;1.73;0.80;;;21.80;36.50;;;;;;5036015;28;87824;-67
2023/03/08 01:34:16;;;;;;;0.43;0.40;;;21.80;36.50;;;;;;5038903;27;87116;-67
2023/03/08 01:36:44;;;;;;;0.60;0.50;;;21.80;36.60;;;;;;5038955;27;90531;-67
2023/03/08 01:39:12;;;;;;;0.50;0.50;;;21.80;36.60;;;;;;5039507;28;89629;-67
2023/03/08 01:41:41;;;;;;;0.30;0.30;;;21.80;36.60;;;;;;5040746;27;87135;-67
2023/03/08 01:44:13;;;;;;;0.53;0.50;;;21.70;36.50;;;;;;5040606;27;86939;-67
2023/03/08 01:46:41;;;;;;;0.83;0.70;;;21.70;36.50;;;;;;5040344;28;89151;-67
2023/03/08 01:49:10;;;;;;;0.63;0.63;;;21.70;36.50;;;;;;5040355;28;87757;-67
2023/03/08 01:51:39;;;;;;;0.60;0.60;;;21.70;36.50;;;;;;5035070;28;87123;-67
2023/03/08 01:54:09;;;;;;;0.50;0.50;;;21.70;36.50;;;;;;5040407;28;87385;-67
2023/03/08 01:56:37;;;;;;;1.43;0.67;;;21.60;36.50;;;;;;5048922;27;89130;-67
2023/03/08 01:59:07;;;;;;;0.63;0.60;;;21.60;36.50;;;;;;5053180;28;88306;-67
2023/03/08 02:01:35;;;;;;;1.00;0.50;;;21.60;36.50;;;;;;5054917;28;88416;-67
2023/03/08 02:04:03;;;;;;;1.00;0.60;;;21.60;36.50;;;;;;5054320;27;86991;-67
2023/03/08 02:06:31;;;;;;;0.57;0.57;;;21.60;36.60;;;;;;5056278;27;89134;-67
2023/03/08 02:09:03;;;;;;;0.47;0.47;;;21.60;36.60;;;;;;5051517;27;88584;-66
2023/03/08 02:11:31;;;;;;;1.23;0.80;;;21.60;36.60;;;;;;5044013;27;87058;-67
2023/03/08 02:13:59;;;;;;;0.70;0.60;;;21.50;36.50;;;;;;5035315;27;86924;-67
2023/03/08 02:16:28;;;;;;;0.50;0.37;;;21.50;36.50;;;;;;5039169;27;89013;-66
2023/03/08 02:18:57;;;;;;;1.90;0.77;;;21.50;36.50;;;;;;5038293;27;88952;-67
2023/03/08 02:21:26;;;;;;;0.70;0.70;;;21.50;36.50;;;;;;5038406;28;87375;-67
2023/03/08 02:23:55;;;;;;;1.50;0.60;;;21.40;36.50;;;;;;5039732;28;88157;-67
2023/03/08 02:26:23;;;;;;;2.93;1.13;;;21.40;36.50;;;;;;5035333;28;88886;-67
2023/03/08 02:28:51;;;;;;;1.83;0.97;;;21.40;36.50;;;;;;5038986;27;88059;-67
2023/03/08 02:31:19;;;;;;;0.90;0.90;;;21.40;36.50;;;;;;5039622;28;87016;-67
2023/03/08 02:33:47;;;;;;;1.03;0.70;;;21.40;36.60;;;;;;5039626;27;86992;-67
2023/03/08 02:36:15;;;;;;;0.97;0.60;;;21.40;36.60;;;;;;5038428;28;89032;-67
2023/03/08 02:38:43;;;;;;;1.03;0.60;;;21.30;36.50;;;;;;5037542;27;88865;-67
2023/03/08 02:41:12;;;;;;;0.60;0.60;;;21.30;36.50;;;;;;5038559;27;88063;-65
2023/03/08 02:43:40;;;;;;;0.60;0.60;;;21.20;36.70;;;;;;5039183;28;87181;-66
2023/03/08 02:46:10;;;;;;;1.40;0.70;;;21.40;36.60;;;;;;5038316;28;89044;-61
2023/03/08 02:48:38;;;;;;;1.00;0.50;;;21.40;36.60;;;;;;5039107;28;89150;-61
2023/03/08 02:51:06;;;;;;;0.80;0.80;;;21.40;36.70;;;;;;5039590;27;88181;-63
2023/03/08 02:53:34;;;;;;;0.90;0.60;;;21.40;36.80;;;;;;5038926;28;87760;-62
2023/03/08 02:56:02;;;;;;;0.53;0.50;;;21.40;36.90;;;;;;5038991;28;89081;-63
2023/03/08 02:58:32;;;;;;;2.10;1.00;;;21.40;37.10;;;;;;5037746;27;87615;-67
2023/03/08 03:01:00;;;;;;;0.80;0.80;;;21.40;37.20;;;;;;5038876;28;87058;-67
2023/03/08 03:03:28;;;;;;;0.40;0.40;;;21.30;37.20;;;;;;5039525;27;86996;-67
2023/03/08 03:05:55;;;;;;;0.67;0.67;;;21.30;37.30;;;;;;5038887;27;89017;-67
2023/03/08 03:08:23;;;;;;;0.50;0.50;;;21.30;37.40;;;;;;5038611;28;89109;-66
2023/03/08 03:10:51;;;;;;;0.60;0.60;;;21.30;37.50;;;;;;5035115;27;87059;-67
2023/03/08 03:13:19;;;;;;;1.50;0.63;;;21.30;37.60;;;;;;5039754;27;87213;-67
2023/03/08 03:15:49;;;;;;;0.60;0.60;;;21.30;37.80;;;;;;5041180;28;90155;-67
2023/03/08 03:18:17;;;;;;;0.70;0.60;;;21.20;37.80;;;;;;5041937;27;88908;-67
2023/03/08 03:20:45;;;;;;;0.30;0.30;;;21.20;37.80;;;;;;5042960;28;86973;-67
2023/03/08 03:23:13;;;;;;;1.37;0.40;;;21.30;38.00;;;;;;5042222;27;87094;-67
2023/03/08 03:25:41;;;;;;;0.83;0.60;;;21.20;37.90;;;;;;5042341;27;89371;-67
2023/03/08 03:28:09;;;;;;;0.87;0.70;;;21.20;38.00;;;;;;5042315;27;87120;-67
2023/03/08 03:30:37;;;;;;;1.63;0.47;;;21.20;38.00;;;;;;5042328;27;87045;-67
2023/03/08 03:33:06;;;;;;;2.00;0.60;;;21.20;38.00;;;;;;5042721;28;86417;-67
2023/03/08 03:35:34;;;;;;;1.13;0.70;;;21.20;38.10;;;;;;5041773;28;88981;-67
2023/03/08 03:38:02;;;;;;;0.77;0.67;;;21.20;38.10;;;;;;5042580;28;88800;-67
2023/03/08 03:40:30;;;;;;;0.60;0.60;;;21.10;38.00;;;;;;5039628;28;88007;-67
2023/03/08 03:42:58;;;;;;;1.17;0.77;;;21.10;38.00;;;;;;5042933;27;87608;-67
2023/03/08 03:45:26;;;;;;;0.40;0.40;;;21.10;38.00;;;;;;5042075;28;89111;-67
2023/03/08 03:47:54;;;;;;;1.03;0.77;;;21.10;38.10;;;;;;5041811;27;88840;-67
2023/03/08 03:50:23;;;;;;;0.67;0.50;;;21.10;38.10;;;;;;5042021;27;86937;-67
2023/03/08 03:52:51;;;;;;;0.87;0.87;;;21.10;38.10;;;;;;5041596;27;87076;-67
2023/03/08 03:55:19;;;;;;;0.50;0.50;;;21.00;38.00;;;;;;5042040;28;87740;-67
2023/03/08 03:57:47;;;;;;;0.80;0.70;;;21.00;38.00;;;;;;5041409;27;89232;-67
2023/03/08 04:00:16;;;;;;;1.07;0.80;;;21.00;38.00;;;;;;5041322;27;87134;-67
2023/03/08 04:02:44;;;;;;;0.70;0.70;;;21.00;38.00;;;;;;5042363;28;87208;-67
2023/03/08 04:05:12;;;;;;;1.23;0.57;;;21.00;38.00;;;;;;5041422;28;90068;-67
2023/03/08 04:07:41;;;;;;;0.67;0.67;;;21.00;38.00;;;;;;5037679;27;89500;-67
2023/03/08 04:10:10;;;;;;;0.90;0.90;;;20.90;38.00;;;;;;5042086;27;87284;-67
2023/03/08 04:12:38;;;;;;;0.67;0.67;;;20.90;38.00;;;;;;5041694;27;86961;-67
2023/03/08 04:15:07;;;;;;;3.33;0.80;;;20.90;38.00;;;;;;5041350;27;88009;-67
2023/03/08 04:17:35;;;;;;;0.70;0.70;;;20.90;38.00;;;;;;5042727;27;89004;-67
2023/03/08 04:20:05;;;;;;;0.47;0.33;;;20.90;38.00;;;;;;5041408;27;86976;-67
2023/03/08 04:22:33;;;;;;;0.70;0.70;;;20.90;38.00;;;;;;5041768;28;86240;-67
2023/03/08 04:25:02;;;;;;;0.50;0.50;;;20.80;37.90;;;;;;5041176;27;88916;-67
2023/03/08 04:27:30;;;;;;;0.30;0.30;;;20.90;38.00;;;;;;5041634;27;89053;-67
2023/03/08 04:29:58;;;;;;;0.93;0.60;;;20.80;37.90;;;;;;5041156;28;87989;-67
2023/03/08 04:32:26;;;;;;;0.90;0.80;;;20.80;37.90;;;;;;5041358;27;87037;-67
2023/03/08 04:34:54;;;;;;;0.90;0.80;;;20.80;37.90;;;;;;5041436;28;88470;-67
2023/03/08 04:37:22;;;;;;;1.23;0.90;;;20.80;37.90;;;;;;5040735;28;88946;-67
2023/03/08 04:39:50;;;;;;;1.83;0.90;;;20.80;37.90;;;;;;5040879;28;86972;-67
2023/03/08 04:42:19;;;;;;;0.60;0.60;;;20.70;37.80;;;;;;5041362;28;87001;-67
2023/03/08 04:44:47;;;;;;;1.07;0.97;;;20.70;37.80;;;;;;5040688;27;89175;-67
2023/03/08 04:47:15;;;;;;;0.70;0.70;;;20.70;37.80;;;;;;5041245;28;88821;-67
2023/03/08 04:49:43;;;;;;;0.80;0.80;;;20.70;37.80;;;;;;5040769;28;87076;-67
2023/03/08 04:52:11;;;;;;;0.73;0.73;;;20.70;37.80;;;;;;5041378;28;87082;-67
2023/03/08 04:54:39;;;;;;;0.57;0.57;;;20.70;37.80;;;;;;5040052;27;90107;-67
2023/03/08 04:57:07;;;;;;;0.60;0.53;;;20.70;37.70;;;;;;5040821;28;89920;-67
2023/03/08 04:59:37;;;;;;;0.50;0.50;;;20.70;37.80;;;;;;5041011;28;87749;-67
2023/03/08 05:02:05;;;;;;;1.10;1.00;;;20.60;37.70;;;;;;5040607;27;87159;-67
2023/03/08 05:04:33;;;;;;;1.00;0.67;;;20.60;37.70;;;;;;5036648;28;89244;-67
2023/03/08 05:07:01;;;;;;;1.20;0.83;;;20.60;37.60;;;;;;5040976;27;88990;-67
2023/03/08 05:09:29;;;;;;;0.83;0.73;;;20.60;37.60;;;;;;5040858;27;87056;-67
2023/03/08 05:11:58;;;;;;;0.97;0.70;;;20.60;37.60;;;;;;5041048;28;86317;-68
2023/03/08 05:14:26;;;;;;;1.00;0.80;;;20.60;37.60;;;;;;5040484;27;88011;-68
2023/03/08 05:16:56;;;;;;;1.13;0.67;;;20.60;37.60;;;;;;5040555;28;89103;-67
2023/03/08 05:19:24;;;;;;;0.73;0.73;;;20.60;37.70;;;;;;5040568;28;87942;-67
2023/03/08 05:21:52;;;;;;;0.90;0.90;;;20.50;37.60;;;;;;5040553;27;87057;-67
2023/03/08 05:24:20;;;;;;;2.53;0.97;;;20.50;37.60;;;;;;5040646;27;89104;-67
2023/03/08 05:26:48;;;;;;;1.27;0.83;;;20.50;37.50;;;;;;5040475;28;88608;-67
2023/03/08 05:29:16;;;;;;;0.73;0.63;;;20.50;38.20;;;;;;5040547;27;86914;-67
2023/03/08 05:31:45;;;;;;;0.73;0.73;;;20.50;37.60;;;;;;5039992;27;86984;-67
2023/03/08 05:34:14;;;;;;;0.67;0.67;;;20.50;37.60;;;;;;5040084;27;88977;-67
2023/03/08 05:36:43;;;;;;;0.80;0.80;;;20.50;38.20;;;;;;5039404;27;88888;-67
2023/03/08 05:39:10;;;;;;;1.30;1.10;;;20.40;37.50;;;;;;5040564;27;87006;-67
2023/03/08 05:41:38;;;;;;;0.67;0.57;;;20.40;37.50;;;;;;5040485;27;87037;-67
2023/03/08 05:44:06;;;;;;;0.60;0.60;;;20.40;37.50;;;;;;5039552;27;89683;-67
2023/03/08 05:46:36;;;;;;;0.80;0.80;;;20.40;37.50;;;;;;5040185;28;89722;-67
2023/03/08 05:49:04;;;;;;;0.87;0.87;;;20.40;37.50;;;;;;5040156;27;86973;-67
2023/03/08 05:51:34;;;;;;;0.73;0.73;;;20.40;38.20;;;;;;5036578;27;87300;-67
2023/03/08 05:54:02;;;;;;;1.03;0.93;;;20.40;38.20;;;;;;5039264;28;89055;-67
2023/03/08 05:56:31;;;;;;;0.90;0.87;;;20.40;37.60;;;;;;5039907;27;87149;-67
2023/03/08 05:58:59;;;;;;;0.60;0.60;;;20.30;37.40;;;;;;5040529;27;86962;-67
2023/03/08 06:01:27;;;;;;;0.60;0.60;;;20.30;38.10;;;;;;5037411;28;86323;-67
2023/03/08 06:03:56;;;;;;;0.80;0.53;;;20.40;37.50;;;;;;5039771;27;89177;-67
2023/03/08 06:06:25;;;;;;;0.70;0.67;;;20.30;37.40;;;;;;5039508;28;88979;-67
2023/03/08 06:08:55;;;;;;;0.73;0.73;;;20.30;37.40;;;;;;5039394;27;88152;-67
2023/03/08 06:11:23;;;;;;;1.30;1.20;;;20.30;37.40;;;;;;5040160;28;87065;-67
2023/03/08 06:13:51;;;;;;;1.00;1.00;;;20.30;37.40;;;;;;5041115;27;88428;-67
2023/03/08 06:16:19;;;;;;;0.63;0.63;;;20.30;37.40;;;;;;5040383;28;88624;-67
2023/03/08 06:18:47;;;;;;;1.67;0.87;;;20.30;37.40;;;;;;5040164;27;86937;-67
2023/03/08 06:21:16;;;;;;;1.20;0.80;;;20.30;37.40;;;;;;5039974;28;87055;-67
2023/03/08 06:23:44;;;;;;;0.80;0.80;;;20.20;37.40;;;;;;5039924;27;89334;-67
2023/03/08 06:26:14;;;;;;;1.23;0.83;;;20.20;37.40;;;;;;5040541;27;89062;-67
2023/03/08 06:28:42;;;;;;;0.83;0.80;;;20.20;37.40;;;;;;5039927;27;87988;-67
2023/03/08 06:31:11;;;;;;;0.87;0.83;;;20.20;37.30;;;;;;5039573;27;87038;-67
2023/03/08 06:33:39;;;;;;;1.23;1.10;;;20.20;37.40;;;;;;5039272;27;89978;-67
2023/03/08 06:36:08;;;;;;;0.93;0.67;;;20.20;37.40;;;;;;5039549;28;89679;-67
2023/03/08 06:38:37;;;;;;;2.00;1.40;;;20.20;37.40;;;;;;5036185;28;87077;-67
2023/03/08 06:41:05;;;;;;;0.97;0.87;;;20.20;37.40;;;;;;5039405;27;86972;-67
2023/03/08 06:43:35;;;;;;;0.60;0.60;;;20.20;37.40;;;;;;5039420;27;88222;-67
2023/03/08 06:46:04;;;;;;;1.17;1.07;;;20.20;37.40;;;;;;5039075;27;88524;-67
2023/03/08 06:48:32;;;;;;;2.10;1.27;;;20.20;37.30;;;;;;5042677;27;87515;-67
2023/03/08 06:50:59;;;;;;;1.00;0.90;;;20.20;37.40;;;;;;5039561;27;86323;-67
2023/03/08 06:53:27;;;;;;;1.23;0.80;;;20.10;37.30;;;;;;5042498;27;91818;-67
2023/03/08 06:55:56;;;;;;;1.23;1.13;;;20.10;37.30;;;;;;5042394;27;88901;-67
2023/03/08 06:58:24;;;;;;;1.13;0.70;;;20.10;37.30;;;;;;5042900;27;87993;-67
2023/03/08 07:00:54;;;;;;;1.77;1.23;;;20.10;37.20;;;;;;5042704;27;88658;-67
2023/03/08 07:03:22;;;;;;;1.70;1.33;;;20.10;37.30;;;;;;5042285;28;89051;-69
2023/03/08 07:05:50;;;;;;;0.90;0.90;;;20.10;37.30;;;;;;5042563;27;88960;-69
2023/03/08 07:08:18;;;;;;;1.70;1.30;;;20.10;37.30;;;;;;5043063;28;86814;-69
2023/03/08 07:10:46;;;;;;;2.10;1.30;;;20.10;37.30;;;;;;5042439;28;86945;-69
2023/03/08 07:13:13;;;;;;;2.67;1.57;;;20.00;37.20;;;;;;5042671;27;89103;-69
2023/03/08 07:15:41;;;;;;;1.60;1.20;;;20.00;37.20;;;;;;5042363;27;89275;-69
2023/03/08 07:18:11;;;;;;;1.03;0.90;;;20.00;37.20;;;;;;5042746;28;87766;-69
2023/03/08 07:20:41;;;;;;;1.67;1.20;;;20.00;37.20;;;;;;5042478;27;87077;-69
2023/03/08 07:23:09;;;;;;;3.13;1.70;;;20.00;37.20;;;;;;5041678;27;90251;-69
2023/03/08 07:25:38;;;;;;;2.13;1.73;;;20.00;37.30;;;;;;5042174;28;88941;-69
2023/03/08 07:28:06;;;;;;;2.20;1.70;;;20.00;37.30;;;;;;5042397;28;86973;-69
2023/03/08 07:30:34;;;;;;;3.13;1.50;;;20.00;37.20;;;;;;5042508;27;87025;-70
2023/03/08 07:33:02;;;;;;;1.83;1.33;;;20.00;37.20;;;;;;5041998;28;89527;-67
2023/03/08 07:35:31;;;;;;;1.33;1.23;;;20.00;37.20;;;;;;5042090;27;88658;-67
2023/03/08 07:37:59;;;;;;;1.97;1.33;;;19.90;37.20;;;;;;5038242;27;87037;-67
2023/03/08 07:40:27;;;;;;;2.97;1.63;;;19.90;37.10;;;;;;5042715;27;87574;-67
2023/03/08 07:42:56;;;;;;;1.80;1.60;;;19.90;37.10;;;;;;5042182;27;89019;-69
2023/03/08 07:45:24;;;;;;;1.63;1.53;;;19.90;37.10;;;;;;5042235;28;87754;-68
2023/03/08 07:47:52;;;;;;;1.90;1.33;;;19.90;37.10;;;;;;5042407;28;87886;-68
2023/03/08 07:50:20;;;;;;;1.83;1.23;;;19.90;37.10;;;;;;5042205;28;87090;-68
2023/03/08 07:52:49;;;;;;;1.50;1.40;;;19.90;37.80;;;;;;5041565;28;89120;-68
2023/03/08 07:55:17;;;;;;;2.10;1.00;;;19.90;37.10;;;;;;5041222;28;88952;-68
2023/03/08 07:57:45;;;;;;;5.13;1.00;;;19.90;37.10;;;;;;5043907;28;86992;-68
2023/03/08 08:00:14;;;;;;;2.10;1.80;;;19.80;37.00;;;;;;5042528;27;86918;-68
2023/03/08 08:02:42;;;;;;;4.27;1.40;;;19.80;37.10;;;;;;5042944;27;89103;-68
2023/03/08 08:05:10;;;;;;;1.80;1.47;;;19.80;37.00;;;;;;5042922;27;88325;-68
2023/03/08 08:07:38;;;;;;;1.97;1.67;;;19.80;37.00;;;;;;5042687;27;87126;-68
2023/03/08 08:10:09;;;;;;;2.00;1.70;;;19.80;37.00;;;;;;5042647;28;87153;-70
2023/03/08 08:12:37;;;;;;;1.70;1.60;;;19.80;37.70;;;;;;5041663;28;90380;-69
2023/03/08 08:15:05;;;;;;;1.90;1.40;;;19.80;37.00;;;;;;5042429;27;89651;-69
2023/03/08 08:17:33;;;;;;;1.97;1.43;;;19.80;37.00;;;;;;5043118;27;87093;-69
2023/03/08 08:20:01;;;;;;;1.90;1.60;;;19.80;37.00;;;;;;5042553;27;87305;-69
2023/03/08 08:22:29;;;;;;;2.10;1.53;;;19.80;37.10;;;;;;5038780;28;89264;-69
2023/03/08 08:24:57;;;;;;;2.17;1.60;;;19.80;37.00;;;;;;5043051;27;88720;-69
2023/03/08 08:27:26;;;;;;;3.27;1.73;;;19.80;37.10;;;;;;5023480;28;86840;-69
2023/03/08 08:29:55;;;;;;;1.47;1.37;;;19.80;37.10;;;;;;5023289;28;86021;-69
2023/03/08 08:32:22;;;;;;;3.37;1.63;;;19.80;37.00;;;;;;5041728;28;89137;-69
2023/03/08 08:34:51;;;;;;;2.83;1.30;;;19.80;37.10;;;;;;5042718;27;88212;-69
2023/03/08 08:37:19;;;;;;;1.73;1.30;;;19.70;37.00;;;;;;5042826;28;87862;-69
2023/03/08 08:39:46;;;;;;;1.27;1.17;;;19.70;37.10;;;;;;5043689;28;87057;-69
2023/03/08 08:42:14;;;;;;;1.73;1.43;;;19.70;37.00;;;;;;5042609;28;89020;-69
2023/03/08 08:44:44;;;;;;;2.17;1.67;;;19.70;37.10;;;;;;5042577;28;88887;-68
2023/03/08 08:47:12;;;;;;;2.67;1.63;;;19.70;37.10;;;;;;5042299;27;87033;-68
2023/03/08 08:49:40;;;;;;;3.07;1.53;;;19.70;37.10;;;;;;5042576;27;86957;-69
2023/03/08 08:52:08;;;;;;;2.07;1.87;;;19.70;37.10;;;;;;5041991;27;88915;-69
2023/03/08 08:54:38;;;;;;;2.63;1.67;;;19.60;37.00;;;;;;5042578;27;88817;-69
2023/03/08 08:57:06;;;;;;;1.17;1.10;;;19.60;37.00;;;;;;5027148;27;88489;-69
2023/03/08 08:59:34;;;;;;;2.13;1.27;;;19.60;37.00;;;;;;5023151;28;86985;-70
2023/03/08 09:02:05;;;;;;;1.90;1.57;;;19.60;37.00;;;;;;5036915;28;89040;-69
2023/03/08 09:04:33;;;;;;;5.10;1.93;;;19.60;37.00;;;;;;5042225;27;89827;-69
2023/03/08 09:07:01;;;;;;;1.63;1.33;;;19.60;37.00;;;;;;5042665;27;87003;-69
2023/03/08 09:09:29;;;;;;;5.30;1.63;;;19.70;37.10;;;;;;5042259;27;86889;-69
2023/03/08 09:11:57;;;;;;;0.90;0.90;;;19.80;37.10;;;;;;5040773;27;89111;-69
2023/03/08 09:14:25;;;;;;;1.37;1.20;;;19.80;36.90;;;;;;5041857;27;88746;-69
2023/03/08 09:16:53;;;;;;;1.50;1.23;;;20.00;36.90;;;;;;5042390;27;87098;-69
2023/03/08 09:19:23;;;;;;;1.53;1.17;;;20.10;36.90;;;;;;5042877;27;86333;-69
2023/03/08 09:21:51;;;;;;;1.60;1.30;;;20.20;36.80;;;;;;5041827;27;89124;-69
2023/03/08 09:24:19;;;;;;;1.43;1.00;;;20.30;36.80;;;;;;5042605;27;88279;-69
2023/03/08 09:26:46;;;;;;;1.23;1.10;;;20.40;36.80;;;;;;5041582;27;87951;-69
2023/03/08 09:29:14;;;;;;;1.40;1.30;;;20.40;36.70;;;;;;5042318;27;86908;-69
2023/03/08 09:31:44;;;;;;;1.40;0.80;;;20.50;36.80;;;;;;5041500;28;89267;-69
2023/03/08 09:34:13;;;;;;;1.20;1.20;;;20.50;36.80;;;;;;5041995;27;88823;-69
2023/03/08 09:36:43;;;;;;;1.80;1.07;;;20.50;36.70;;;;;;5042124;27;86841;-69
2023/03/08 09:39:11;;;;;;;0.93;0.90;;;20.50;37.40;;;;;;5042012;27;86910;-69
2023/03/08 09:41:49;;;;;;;1.10;0.97;;;20.50;36.80;;;;;;5041593;28;88351;-69
2023/03/08 09:44:48;;;;;;;3.47;1.60;;;20.50;36.90;;;;;;5042380;28;89132;-69
2023/03/08 09:47:28;;;;;;;0.97;0.97;;;20.40;36.80;;;;;;5041498;27;86999;-69
2023/03/08 09:50:00;;;;;;;1.47;1.37;;;20.40;36.80;;;;;;5041973;27;87150;-69
2023/03/08 09:52:32;;;;;;;2.00;1.20;;;20.40;36.80;;;;;;5040947;28;90161;-69
2023/03/08 09:55:00;;;;;;;2.17;1.20;;;20.40;36.80;;;;;;5041934;28;89280;-70
2023/03/08 09:57:30;;;;;;;2.10;1.20;;;20.40;36.80;;;;;;5041599;27;87147;-69
2023/03/08 09:59:59;;;;;;;2.83;1.23;;;20.40;36.80;;;;;;5042400;27;86980;-69
2023/03/08 10:02:32;;;;;;;0.80;0.80;;;20.40;36.80;;;;;;5040882;27;89023;-69
2023/03/08 10:05:04;;;;;;;1.57;1.00;;;20.30;37.40;;;;;;5041365;27;87689;-69
2023/03/08 10:07:48;;;;;;;1.20;1.10;;;20.30;36.70;;;;;;5042227;28;86758;-69
2023/03/08 10:10:22;;;;;;;1.47;1.00;;;20.30;36.80;;;;;;5042521;27;86220;-69
2023/03/08 10:12:57;;;;;;;0.83;0.73;;;20.20;36.70;;;;;;5041805;27;88849;-69
2023/03/08 10:15:26;;;;;;;1.27;1.17;;;20.20;36.80;;;;;;5041693;28;88946;-69
2023/03/08 10:17:56;;;;;;;2.53;0.93;;;20.20;36.80;;;;;;5041151;27;87883;-69
2023/03/08 10:20:25;;;;;;;1.07;0.97;;;20.10;36.70;;;;;;5041545;27;87047;-70
2023/03/08 10:22:57;;;;;;;1.90;1.30;;;20.10;36.70;;;;;;5043115;28;89149;-69
2023/03/08 10:25:27;;;;;;;1.50;1.20;;;20.10;36.80;;;;;;5045125;27;89064;-69
2023/03/08 10:27:56;;;;;;;0.63;0.63;;;20.10;36.70;;;;;;5045710;28;86870;-69
2023/03/08 10:30:25;;;;;;;3.73;1.30;;;20.10;36.70;;;;;;5046273;28;86911;-70
2023/03/08 10:32:57;;;;;;;0.97;0.97;;;20.10;36.80;;;;;;5044248;28;89260;-69
2023/03/08 10:35:33;;;;;;;0.73;0.60;;;20.10;36.80;;;;;;5045025;27;91822;-69
2023/03/08 10:38:02;;;;;;;1.00;0.80;;;20.10;36.80;;;;;;5045020;27;87024;-69
2023/03/08 10:40:30;;;;;;;2.77;1.30;;;20.10;36.80;;;;;;5045185;28;86911;-69
2023/03/08 10:43:00;;;;;;;0.80;0.80;;;20.10;36.80;;;;;;5043628;27;90165;-69
2023/03/08 10:45:28;;;;;;;1.07;1.00;;;20.00;36.80;;;;;;5044387;27;90237;-68
2023/03/08 10:47:57;;;;;;;0.90;0.60;;;20.00;36.80;;;;;;5044512;28;87016;-68
2023/03/08 10:50:27;;;;;;;1.47;1.00;;;20.00;36.80;;;;;;5044940;27;88623;-68
2023/03/08 10:52:55;;;;;;;2.83;0.90;;;20.00;36.80;;;;;;5044691;28;89276;-68
2023/03/08 10:55:28;;;;;;;1.73;1.13;;;20.00;36.80;;;;;;5044238;27;88968;-68
2023/03/08 10:57:58;;;;;;;0.63;0.63;;;20.00;36.80;;;;;;5045066;27;86878;-68
2023/03/08 11:00:33;;;;;;;2.60;1.10;;;20.00;37.50;;;;;;5044975;28;86276;-68
2023/03/08 11:03:12;;;;;;;2.47;0.90;;;20.00;36.80;;;;;;5044506;28;89085;-68
2023/03/08 11:05:40;;;;;;;0.60;0.60;;;20.00;36.80;;;;;;5044362;27;89021;-69
2023/03/08 11:08:16;;;;;;;1.97;1.00;;;20.00;36.70;;;;;;5044121;27;87948;-69
2023/03/08 11:10:46;;;;;;;1.40;1.23;;;20.00;36.80;;;;;;5044249;28;86933;-69
2023/03/08 11:13:25;;;;;;;1.17;1.13;;;20.00;36.80;;;;;;5043973;27;88035;-69
2023/03/08 11:15:56;;;;;;;0.60;0.60;;;20.00;36.80;;;;;;5044092;28;87780;-69
2023/03/08 11:18:28;;;;;;;1.20;1.10;;;20.00;36.80;;;;;;5043823;27;87201;-68
2023/03/08 11:20:57;;;;;;;0.50;0.50;;;19.90;36.80;;;;;;5044397;28;88242;-68
2023/03/08 11:23:26;;;;;;;0.90;0.83;;;20.00;36.80;;;;;;5043577;27;88061;-68
2023/03/08 11:25:59;;;;;;;0.87;0.77;;;19.90;36.70;;;;;;5044070;27;88964;-68
2023/03/08 11:28:56;;;;;;;0.80;0.60;;;20.00;36.80;;;;;;5044340;27;87003;-69
2023/03/08 11:31:27;;;;;;;0.70;0.70;;;19.90;36.80;;;;;;5044151;27;87039;-69
2023/03/08 11:34:20;;;;;;;0.77;0.77;;;19.90;36.70;;;;;;5042211;27;90010;-68
2023/03/08 11:36:50;;;;;;;0.83;0.80;;;19.90;36.70;;;;;;5043580;27;89975;-69
2023/03/08 11:39:24;;;;;;;0.60;0.50;;;19.90;36.70;;;;;;5043830;27;87105;-68
2023/03/08 11:41:57;;;;;;;1.53;1.17;;;19.90;36.70;;;;;;5043757;28;86899;-69
2023/03/08 11:44:38;;;;;;;1.60;0.97;;;19.90;36.70;;;;;;5042892;27;88348;-69
2023/03/08 11:47:39;;;;;;;1.30;0.90;;;19.90;36.70;;;;;;5043840;27;88944;-69
2023/03/08 11:50:10;;;;;;;0.83;0.80;;;19.90;36.70;;;;;;5044185;27;86854;-69
2023/03/08 11:52:42;;;;;;;0.50;0.50;;;19.90;36.70;;;;;;5044159;27;86046;-68
2023/03/08 11:55:21;;;;;;;0.70;0.70;;;19.80;36.70;;;;;;5043657;27;89241;-68
2023/03/08 11:57:53;;;;;;;1.50;0.93;;;19.80;36.70;;;;;;5043606;27;89083;-69
2023/03/08 12:00:24;;;;;;;2.00;1.17;;;19.80;36.70;;;;;;5043805;27;87971;-68
2023/03/08 12:02:52;;;;;;;0.50;0.50;;;19.80;36.70;;;;;;5043242;27;87061;-68
2023/03/08 12:05:24;;;;;;;0.60;0.60;;;19.80;36.70;;;;;;5043425;27;89005;-68
2023/03/08 12:07:54;;;;;;;0.83;0.83;;;19.80;36.70;;;;;;5043697;27;88968;-68
2023/03/08 12:10:23;;;;;;;1.37;1.03;;;19.80;36.70;;;;;;5044166;27;87028;-69
2023/03/08 12:12:54;;;;;;;0.97;0.73;;;19.80;36.70;;;;;;5043126;28;86910;-69
2023/03/08 12:15:26;;;;;;;1.00;0.80;;;19.70;36.60;;;;;;5043711;27;89316;-68
2023/03/08 12:17:57;;;;;;;1.40;1.30;;;19.70;36.60;;;;;;5044151;27;88902;-69
2023/03/08 12:20:25;;;;;;;1.20;0.80;;;19.70;36.60;;;;;;5044080;27;86987;-69
2023/03/08 12:22:54;;;;;;;0.70;0.67;;;19.70;36.60;;;;;;5043416;28;86919;-69
2023/03/08 12:25:24;;;;;;;1.60;1.07;;;19.70;36.60;;;;;;5043372;27;89621;-68
2023/03/08 12:27:57;;;;;;;1.23;1.00;;;19.70;36.60;;;;;;5043439;27;89733;-68
2023/03/08 12:30:33;;;;;;;1.00;0.90;;;19.60;36.60;;;;;;5043680;27;87092;-69
2023/03/08 12:33:02;;;;;;;0.90;0.90;;;19.60;36.60;;;;;;5044723;28;86848;-69
2023/03/08 12:35:31;;;;;;;1.70;0.90;;;19.70;36.70;;;;;;5042928;28;88861;-68
2023/03/08 12:38:00;;;;;;;1.50;0.87;;;19.60;36.60;;;;;;5043231;28;88770;-68
2023/03/08 12:40:31;;;;;;;0.70;0.70;;;19.60;36.60;;;;;;5043643;27;87082;-68
2023/03/08 12:43:09;;;;;;;0.80;0.73;;;19.60;36.60;;;;;;5043244;27;86277;-68
2023/03/08 12:45:37;;;;;;;2.20;1.23;;;19.60;36.90;;;;;;5042942;27;89160;-68
2023/03/08 12:48:16;;;;;;;1.30;0.67;;;19.60;36.60;;;;;;5042902;27;89008;-68
2023/03/08 12:50:45;;;;;;;0.70;0.70;;;19.60;36.60;;;;;;5043055;28;87648;-68
2023/03/08 12:53:23;;;;;;;0.53;0.53;;;19.60;36.60;;;;;;5042808;27;86986;-68
2023/03/08 12:56:02;;;;;;;1.00;0.90;;;19.50;36.50;;;;;;5042906;28;89104;-68
2023/03/08 12:58:32;;;;;;;1.17;1.10;;;19.50;36.50;;;;;;5043136;28;89264;-69